Time;durP1;ratioP1;P1;durP2;ratioP2;P2;SDS_P1;SDS_P2;PMS_P1;PMS_P2;Temp;Humidity;BMP_temperature;BMP_pressure;BME280_temperature;BME280_humidity;BME280_pressure;Samples;Min_cycle;Max_cycle;Signal;HPM_P1;HPM_P2
2021/10/13 00:01:21;;;;;;;6.90;1.55;;;11.30;95.10;;;;;;5008905;28;20137;-59
2021/10/13 00:03:48;;;;;;;9.60;2.45;;;11.20;95.10;;;;;;5013946;28;20095;-58
2021/10/13 00:06:15;;;;;;;6.28;1.35;;;11.10;95.40;;;;;;5024147;28;20132;-59
2021/10/13 00:08:41;;;;;;;5.80;1.58;;;11.00;95.60;;;;;;5008322;28;20050;-58
2021/10/13 00:11:08;;;;;;;10.18;1.50;;;11.00;95.70;;;;;;5015389;28;20084;-58
2021/10/13 00:13:35;;;;;;;6.22;1.58;;;10.90;95.70;;;;;;5022417;28;20045;-58
2021/10/13 00:16:03;;;;;;;9.38;1.70;;;10.80;95.90;;;;;;5006887;28;20109;-59
2021/10/13 00:18:30;;;;;;;5.22;1.40;;;10.70;95.80;;;;;;5017093;28;20412;-59
2021/10/13 00:20:57;;;;;;;4.78;1.77;;;10.70;96.00;;;;;;5021974;28;20301;-59
2021/10/13 00:23:24;;;;;;;11.23;2.15;;;10.60;96.10;;;;;;5020712;28;20128;-58
2021/10/13 00:25:50;;;;;;;8.35;1.77;;;10.60;96.10;;;;;;5024289;28;20132;-58
2021/10/13 00:28:17;;;;;;;10.38;1.73;;;10.60;96.30;;;;;;5018862;28;20138;-58
2021/10/13 00:30:44;;;;;;;6.57;2.50;;;10.50;96.30;;;;;;5010057;28;20133;-58
2021/10/13 00:33:11;;;;;;;4.18;1.70;;;10.50;96.60;;;;;;5006431;28;20056;-58
2021/10/13 00:35:37;;;;;;;10.57;1.60;;;10.40;96.60;;;;;;5024681;28;20136;-58
2021/10/13 00:38:04;;;;;;;10.57;1.77;;;10.40;96.60;;;;;;5026232;28;20481;-58
2021/10/13 00:40:31;;;;;;;10.82;1.83;;;10.30;96.50;;;;;;5016215;28;20045;-58
2021/10/13 00:42:58;;;;;;;9.52;2.53;;;10.20;96.60;;;;;;5027569;28;20080;-58
2021/10/13 00:45:25;;;;;;;8.95;3.17;;;10.20;96.70;;;;;;5027700;28;20429;-58
2021/10/13 00:47:51;;;;;;;4.93;2.20;;;10.10;96.60;;;;;;5026291;28;20065;-58
2021/10/13 00:50:18;;;;;;;7.95;1.92;;;10.00;96.90;;;;;;5019897;28;20509;-58
2021/10/13 00:52:45;;;;;;;4.38;1.17;;;9.90;96.60;;;;;;5018183;28;20215;-58
2021/10/13 00:55:17;;;;;;;4.13;1.45;;;9.80;96.70;;;;;;5022120;28;20100;-58
2021/10/13 00:57:45;;;;;;;7.57;1.48;;;9.70;97.20;;;;;;5015762;28;20050;-58
2021/10/13 01:00:12;;;;;;;5.18;1.38;;;9.70;97.10;;;;;;5015391;28;20573;-57
2021/10/13 01:02:46;;;;;;;7.97;1.70;;;9.60;96.90;;;;;;5024520;28;20113;-58
2021/10/13 01:05:30;;;;;;;5.97;1.40;;;9.60;97.20;;;;;;5006366;28;20046;-58
2021/10/13 01:08:20;;;;;;;6.10;1.52;;;9.50;97.40;;;;;;4998557;28;20041;-57
2021/10/13 01:11:03;;;;;;;6.38;1.63;;;9.40;97.30;;;;;;5010241;28;20068;-57
2021/10/13 01:14:02;;;;;;;4.15;1.55;;;9.30;97.60;;;;;;5024683;28;20081;-57
2021/10/13 01:16:46;;;;;;;5.13;1.70;;;9.30;97.50;;;;;;5010302;28;20430;-56
2021/10/13 01:19:19;;;;;;;4.82;1.75;;;9.20;97.60;;;;;;5025188;28;20499;-58
2021/10/13 01:22:03;;;;;;;5.30;2.00;;;9.20;97.80;;;;;;5021562;28;20316;-53
2021/10/13 01:24:45;;;;;;;6.15;1.70;;;9.10;97.80;;;;;;5015437;28;20493;-59
2021/10/13 01:27:30;;;;;;;4.45;1.60;;;9.00;98.00;;;;;;5031746;28;20052;-57
2021/10/13 01:29:56;;;;;;;8.00;2.03;;;9.10;98.10;;;;;;5016825;28;20139;-58
2021/10/13 01:32:26;;;;;;;2.55;1.60;;;9.00;97.90;;;;;;5039594;28;20053;-58
2021/10/13 01:34:56;;;;;;;4.65;2.00;;;9.00;98.00;;;;;;5027259;28;20065;-58
2021/10/13 01:37:28;;;;;;;4.78;1.80;;;9.00;97.80;;;;;;5010446;28;20134;-59
2021/10/13 01:39:56;;;;;;;4.30;1.97;;;9.00;97.60;;;;;;5027292;28;20073;-58
2021/10/13 01:42:23;;;;;;;6.28;1.58;;;9.00;97.70;;;;;;5027011;28;20072;-60
2021/10/13 01:44:52;;;;;;;5.90;1.73;;;8.90;97.60;;;;;;5025241;28;20074;-58
2021/10/13 01:47:20;;;;;;;5.78;1.70;;;8.80;97.60;;;;;;5022314;28;20080;-58
2021/10/13 01:49:47;;;;;;;5.72;1.50;;;8.80;97.60;;;;;;5023367;28;20800;-58
2021/10/13 01:52:14;;;;;;;5.22;1.67;;;8.70;97.50;;;;;;5026552;28;20464;-58
2021/10/13 01:54:41;;;;;;;2.70;1.67;;;8.70;97.70;;;;;;5026554;28;20072;-58
2021/10/13 01:57:08;;;;;;;3.33;1.70;;;8.70;97.80;;;;;;5022758;28;20215;-59
2021/10/13 01:59:36;;;;;;;9.05;1.90;;;8.70;97.70;;;;;;5031317;28;20088;-58
2021/10/13 02:02:02;;;;;;;5.88;1.80;;;8.60;98.00;;;;;;5019137;28;20089;-58
2021/10/13 02:04:31;;;;;;;7.57;1.80;;;8.60;97.80;;;;;;5021757;28;20064;-58
2021/10/13 02:06:58;;;;;;;5.10;1.85;;;8.60;97.80;;;;;;5023808;28;20106;-58
2021/10/13 02:09:25;;;;;;;3.88;1.70;;;8.60;97.90;;;;;;5022964;28;20041;-58
2021/10/13 02:11:55;;;;;;;4.85;2.17;;;8.60;98.00;;;;;;5022301;28;20569;-58
2021/10/13 02:14:22;;;;;;;7.50;1.60;;;8.50;98.00;;;;;;5023338;28;20049;-58
2021/10/13 02:16:50;;;;;;;6.90;1.67;;;8.50;97.80;;;;;;5003255;28;20132;-58
2021/10/13 02:19:19;;;;;;;4.97;1.65;;;8.50;97.70;;;;;;5025873;28;20473;-58
2021/10/13 02:21:49;;;;;;;3.75;1.83;;;8.40;97.80;;;;;;5021027;28;20326;-59
2021/10/13 02:24:21;;;;;;;6.82;1.80;;;8.40;97.90;;;;;;5003087;28;20546;-61
2021/10/13 02:26:48;;;;;;;3.38;1.60;;;8.30;97.80;;;;;;5022559;28;20069;-58
2021/10/13 02:29:16;;;;;;;5.55;1.60;;;8.30;98.10;;;;;;5017288;28;20085;-58
2021/10/13 02:31:44;;;;;;;8.98;3.28;;;8.30;98.00;;;;;;5022858;28;20118;-58
2021/10/13 02:34:11;;;;;;;5.53;1.88;;;8.20;97.90;;;;;;5024343;28;20152;-58
2021/10/13 02:36:38;;;;;;;3.35;1.80;;;8.20;97.90;;;;;;5024396;28;20564;-58
2021/10/13 02:39:05;;;;;;;7.18;1.80;;;8.10;98.00;;;;;;5019894;28;20072;-58
2021/10/13 02:41:32;;;;;;;6.78;1.70;;;8.10;98.30;;;;;;5018735;28;20141;-58
2021/10/13 02:43:59;;;;;;;4.85;1.80;;;8.10;98.10;;;;;;5006840;28;20128;-59
2021/10/13 02:46:39;;;;;;;4.90;1.92;;;8.10;98.20;;;;;;5024175;28;20516;-58
2021/10/13 02:49:21;;;;;;;6.15;2.03;;;8.10;98.00;;;;;;5024352;28;20085;-59
2021/10/13 02:51:59;;;;;;;4.22;1.88;;;8.10;98.10;;;;;;5023220;28;20128;-58
2021/10/13 02:54:32;;;;;;;3.28;1.67;;;8.10;98.00;;;;;;5023121;28;20107;-56
2021/10/13 02:56:59;;;;;;;5.18;2.00;;;8.00;97.90;;;;;;5006994;28;20057;-58
2021/10/13 02:59:29;;;;;;;3.08;1.60;;;8.00;97.70;;;;;;5006168;28;20083;-58
2021/10/13 03:01:56;;;;;;;5.95;1.75;;;7.90;97.70;;;;;;5023183;28;20081;-58
2021/10/13 03:04:26;;;;;;;4.10;1.58;;;7.90;97.70;;;;;;5023108;28;20049;-58
2021/10/13 03:07:03;;;;;;;3.78;1.77;;;7.90;97.90;;;;;;5022971;28;20460;-58
2021/10/13 03:09:32;;;;;;;4.80;2.08;;;7.80;98.00;;;;;;5024355;28;20061;-58
2021/10/13 03:11:59;;;;;;;7.03;2.13;;;7.70;98.20;;;;;;5022286;28;20212;-58
2021/10/13 03:14:25;;;;;;;4.93;1.83;;;7.70;97.90;;;;;;5006780;28;20137;-58
2021/10/13 03:16:53;;;;;;;4.93;1.95;;;7.70;98.00;;;;;;5005800;28;20132;-58
2021/10/13 03:19:21;;;;;;;3.90;1.80;;;7.70;98.00;;;;;;5023201;28;20475;-58
2021/10/13 03:21:51;;;;;;;4.18;1.60;;;7.60;98.20;;;;;;5006656;28;20099;-58
2021/10/13 03:24:18;;;;;;;2.80;1.50;;;7.60;98.20;;;;;;5024935;28;20112;-58
2021/10/13 03:26:48;;;;;;;2.40;1.38;;;7.60;97.90;;;;;;5023923;28;20084;-58
2021/10/13 03:29:15;;;;;;;3.60;1.58;;;7.50;98.00;;;;;;5023935;28;20447;-58
2021/10/13 03:31:42;;;;;;;3.75;1.73;;;7.50;98.10;;;;;;5023595;28;20825;-59
2021/10/13 03:34:09;;;;;;;5.13;2.30;;;7.40;98.00;;;;;;5024034;28;20053;-58
2021/10/13 03:36:39;;;;;;;4.47;1.55;;;7.30;98.00;;;;;;5024059;28;20045;-58
2021/10/13 03:39:07;;;;;;;4.57;1.55;;;7.30;98.60;;;;;;5024062;28;20059;-58
2021/10/13 03:41:34;;;;;;;2.47;1.45;;;7.30;98.50;;;;;;5023454;28;20099;-58
2021/10/13 03:44:01;;;;;;;3.75;1.73;;;7.30;98.50;;;;;;5027829;28;20136;-59
2021/10/13 03:46:27;;;;;;;3.78;2.28;;;7.40;98.80;;;;;;5029156;28;20524;-58
2021/10/13 03:48:54;;;;;;;4.22;1.65;;;7.40;99.00;;;;;;5030028;28;20132;-58
2021/10/13 03:51:21;;;;;;;5.63;1.50;;;7.40;98.30;;;;;;5044999;28;20051;-58
2021/10/13 03:53:48;;;;;;;4.25;1.67;;;7.40;98.00;;;;;;5044715;28;20137;-58
2021/10/13 03:56:15;;;;;;;5.45;1.67;;;7.30;98.10;;;;;;5028785;28;20073;-58
2021/10/13 03:58:41;;;;;;;5.50;1.20;;;7.30;97.70;;;;;;5027325;28;20084;-58
2021/10/13 04:01:08;;;;;;;3.78;1.73;;;7.30;98.30;;;;;;5029262;28;20100;-58
2021/10/13 04:03:36;;;;;;;8.55;1.77;;;7.30;98.70;;;;;;5028327;28;20050;-58
2021/10/13 04:06:03;;;;;;;5.38;1.90;;;7.30;98.40;;;;;;5029139;28;20049;-58
2021/10/13 04:08:30;;;;;;;6.50;2.05;;;7.20;98.20;;;;;;5027653;28;20076;-58
2021/10/13 04:10:57;;;;;;;7.30;2.15;;;7.20;98.30;;;;;;5029197;28;20142;-58
2021/10/13 04:13:24;;;;;;;6.70;2.10;;;7.10;98.60;;;;;;5028116;28;20120;-59
2021/10/13 04:15:51;;;;;;;4.65;2.00;;;7.10;98.80;;;;;;5029349;28;20325;-59
2021/10/13 04:18:17;;;;;;;4.20;2.10;;;7.10;98.60;;;;;;5028040;28;20064;-59
2021/10/13 04:20:44;;;;;;;5.22;2.00;;;7.10;98.60;;;;;;5029375;28;20084;-58
2021/10/13 04:23:15;;;;;;;2.97;1.67;;;7.10;98.50;;;;;;5028492;28;20555;-59
2021/10/13 04:25:42;;;;;;;9.02;1.80;;;7.00;98.40;;;;;;5029070;28;20065;-59
2021/10/13 04:28:09;;;;;;;3.47;2.20;;;7.00;98.50;;;;;;5028218;28;20077;-59
2021/10/13 04:30:37;;;;;;;5.10;2.20;;;7.00;98.40;;;;;;5029411;28;20405;-59
2021/10/13 04:33:04;;;;;;;5.95;1.70;;;7.00;98.30;;;;;;5028329;28;20669;-59
2021/10/13 04:35:31;;;;;;;5.15;2.38;;;7.00;98.50;;;;;;5028928;28;20156;-59
2021/10/13 04:37:58;;;;;;;3.70;1.88;;;7.00;98.20;;;;;;5028936;28;20751;-58
2021/10/13 04:40:25;;;;;;;7.53;2.30;;;6.90;98.30;;;;;;5029048;28;20462;-58
2021/10/13 04:42:52;;;;;;;6.07;1.90;;;6.90;98.30;;;;;;5028767;28;20149;-59
2021/10/13 04:45:18;;;;;;;4.90;1.98;;;6.90;98.40;;;;;;5028273;28;20520;-61
2021/10/13 04:47:45;;;;;;;4.68;1.77;;;6.90;98.10;;;;;;5026997;28;20080;-58
2021/10/13 04:50:12;;;;;;;5.95;1.83;;;6.90;98.30;;;;;;5026280;28;20446;-58
2021/10/13 04:52:38;;;;;;;4.75;1.48;;;6.90;98.30;;;;;;5026622;28;20099;-59
2021/10/13 04:55:06;;;;;;;3.30;1.95;;;6.90;98.20;;;;;;5026814;28;20128;-58
2021/10/13 04:57:33;;;;;;;4.97;1.88;;;6.80;98.10;;;;;;5026148;28;20077;-59
2021/10/13 04:59:59;;;;;;;3.88;1.77;;;6.80;98.30;;;;;;5024872;28;20477;-59
2021/10/13 05:02:27;;;;;;;4.40;2.10;;;6.70;98.50;;;;;;5024057;28;20084;-59
2021/10/13 05:04:54;;;;;;;4.13;1.58;;;6.70;98.70;;;;;;5024201;28;20543;-58
2021/10/13 05:07:21;;;;;;;3.97;2.00;;;6.70;98.70;;;;;;5023990;28;20093;-59
2021/10/13 05:09:48;;;;;;;3.72;1.75;;;6.60;98.70;;;;;;5023741;28;20152;-58
2021/10/13 05:12:14;;;;;;;3.33;2.15;;;6.60;98.80;;;;;;5021852;28;20121;-59
2021/10/13 05:14:41;;;;;;;4.72;2.15;;;6.60;98.80;;;;;;5022148;28;20675;-59
2021/10/13 05:17:08;;;;;;;7.07;2.28;;;6.60;99.00;;;;;;5021428;28;20093;-59
2021/10/13 05:19:37;;;;;;;5.47;2.22;;;6.60;98.90;;;;;;5022180;28;21629;-59
2021/10/13 05:22:04;;;;;;;8.73;4.00;;;6.60;98.70;;;;;;5021851;28;21397;-58
2021/10/13 05:24:31;;;;;;;5.65;2.75;;;6.60;98.60;;;;;;5020559;28;20107;-58
2021/10/13 05:26:58;;;;;;;5.75;2.60;;;6.50;99.00;;;;;;5024348;28;20765;-59
2021/10/13 05:29:24;;;;;;;6.78;3.05;;;6.50;98.90;;;;;;5023365;28;20164;-58
2021/10/13 05:31:52;;;;;;;5.80;2.72;;;6.50;98.80;;;;;;5022288;28;20125;-58
2021/10/13 05:34:19;;;;;;;7.45;2.10;;;6.50;98.80;;;;;;5021059;28;20136;-59
2021/10/13 05:36:45;;;;;;;3.78;2.35;;;6.40;98.80;;;;;;5021885;28;20153;-59
2021/10/13 05:39:12;;;;;;;10.05;5.47;;;6.40;98.50;;;;;;5024375;28;20088;-59
2021/10/13 05:41:40;;;;;;;4.00;2.22;;;6.40;98.80;;;;;;5023973;28;20041;-59
2021/10/13 05:44:07;;;;;;;7.68;4.55;;;6.30;98.70;;;;;;5023582;28;20073;-58
2021/10/13 05:46:33;;;;;;;7.03;3.30;;;6.30;98.80;;;;;;5023354;28;20496;-59
2021/10/13 05:49:00;;;;;;;6.15;3.00;;;6.30;99.00;;;;;;5025368;28;20049;-58
2021/10/13 05:51:27;;;;;;;5.82;3.20;;;6.30;98.90;;;;;;5023825;28;20079;-59
2021/10/13 05:53:54;;;;;;;5.15;3.00;;;6.30;98.80;;;;;;5022899;28;20080;-58
2021/10/13 05:56:20;;;;;;;4.60;2.40;;;6.30;98.80;;;;;;5023509;28;20049;-58
2021/10/13 05:58:51;;;;;;;7.45;3.05;;;6.30;98.80;;;;;;5018734;28;20136;-58
2021/10/13 06:01:19;;;;;;;3.58;2.35;;;6.30;98.80;;;;;;5014518;28;20140;-59
2021/10/13 06:03:47;;;;;;;7.80;4.55;;;6.20;98.80;;;;;;5018889;28;20562;-59
2021/10/13 06:06:17;;;;;;;5.57;3.85;;;6.30;99.00;;;;;;5018249;28;20128;-58
2021/10/13 06:08:44;;;;;;;6.40;4.43;;;6.30;99.50;;;;;;5018619;28;20092;-59
2021/10/13 06:11:11;;;;;;;5.63;3.50;;;6.40;99.40;;;;;;5017024;28;20057;-59
2021/10/13 06:13:39;;;;;;;7.85;2.80;;;6.50;99.50;;;;;;5032430;28;20092;-59
2021/10/13 06:16:10;;;;;;;6.88;2.40;;;6.60;99.30;;;;;;5017293;28;20052;-59
2021/10/13 06:18:37;;;;;;;14.93;7.60;;;6.60;99.50;;;;;;5017250;28;20434;-59
2021/10/13 06:21:04;;;;;;;7.65;3.97;;;6.80;99.70;;;;;;5016051;28;20081;-59
2021/10/13 06:23:31;;;;;;;4.75;2.70;;;6.80;99.50;;;;;;5017551;28;20630;-59
2021/10/13 06:25:58;;;;;;;5.20;2.72;;;6.90;99.30;;;;;;5024182;28;20138;-60
2021/10/13 06:28:25;;;;;;;6.10;3.10;;;7.00;99.20;;;;;;5017785;28;20084;-59
2021/10/13 06:30:51;;;;;;;9.15;3.95;;;7.00;99.00;;;;;;5018532;28;20140;-59
2021/10/13 06:33:18;;;;;;;6.30;3.22;;;7.20;99.40;;;;;;5017078;28;20053;-59
2021/10/13 06:35:45;;;;;;;5.10;3.22;;;7.30;99.10;;;;;;5018186;28;20145;-59
2021/10/13 06:38:12;;;;;;;10.25;4.65;;;7.40;99.10;;;;;;5017432;28;20085;-59
2021/10/13 06:40:38;;;;;;;6.10;2.95;;;7.40;98.90;;;;;;5018266;28;20046;-59
2021/10/13 06:43:07;;;;;;;4.65;2.50;;;7.50;98.70;;;;;;5017608;28;20135;-59
2021/10/13 06:45:36;;;;;;;5.18;2.28;;;7.50;99.00;;;;;;5017908;28;20292;-60
2021/10/13 06:48:06;;;;;;;8.32;3.03;;;7.50;98.80;;;;;;5016780;28;20084;-59
2021/10/13 06:50:34;;;;;;;6.20;2.88;;;7.60;98.70;;;;;;5017895;28;20081;-59
2021/10/13 06:53:00;;;;;;;7.18;3.13;;;7.70;98.60;;;;;;5017760;28;20050;-59
2021/10/13 06:55:27;;;;;;;6.50;2.95;;;7.80;98.40;;;;;;5017679;28;20166;-59
2021/10/13 06:57:54;;;;;;;8.75;3.22;;;7.90;98.50;;;;;;5017869;28;20638;-59
2021/10/13 07:00:21;;;;;;;4.70;2.85;;;7.90;98.70;;;;;;5016878;28;20144;-59
2021/10/13 07:02:47;;;;;;;7.07;3.45;;;8.00;98.90;;;;;;5018375;28;20132;-59
2021/10/13 07:05:15;;;;;;;7.22;3.08;;;8.00;98.60;;;;;;5033691;28;20188;-59
2021/10/13 07:07:47;;;;;;;9.00;3.30;;;8.10;98.80;;;;;;5018619;28;20128;-59
2021/10/13 07:10:14;;;;;;;6.85;2.83;;;8.10;98.80;;;;;;5019071;28;20202;-59
2021/10/13 07:12:45;;;;;;;6.13;3.63;;;8.20;98.70;;;;;;5018313;28;20525;-59
2021/10/13 07:15:12;;;;;;;5.72;3.72;;;8.30;98.60;;;;;;5017793;28;20455;-59
2021/10/13 07:17:39;;;;;;;6.63;3.50;;;8.30;98.60;;;;;;5020143;28;20148;-59
2021/10/13 07:20:06;;;;;;;9.02;4.40;;;8.40;98.70;;;;;;5022312;28;20267;-59
2021/10/13 07:22:34;;;;;;;7.70;4.18;;;8.50;98.80;;;;;;5020271;28;20107;-59
2021/10/13 07:25:00;;;;;;;9.57;3.97;;;8.60;98.60;;;;;;5020670;28;20091;-59
2021/10/13 07:27:27;;;;;;;10.68;5.95;;;8.70;98.20;;;;;;5022383;28;20085;-59
2021/10/13 07:30:01;;;;;;;18.77;8.93;;;8.70;98.10;;;;;;5022309;28;20539;-58
2021/10/13 07:32:31;;;;;;;9.88;5.30;;;8.80;98.40;;;;;;5022032;28;20068;-59
2021/10/13 07:35:17;;;;;;;11.43;5.10;;;8.80;98.10;;;;;;5019294;28;20136;-58
2021/10/13 07:37:46;;;;;;;7.88;4.28;;;8.90;98.00;;;;;;5020421;28;20445;-59
2021/10/13 07:40:12;;;;;;;8.70;4.57;;;9.00;98.10;;;;;;5020484;28;20053;-57
2021/10/13 07:42:39;;;;;;;10.57;4.88;;;9.10;97.80;;;;;;5020058;28;20079;-58
2021/10/13 07:45:07;;;;;;;17.00;5.25;;;9.20;97.20;;;;;;5024820;28;20045;-59
2021/10/13 07:47:34;;;;;;;8.73;4.63;;;9.20;97.40;;;;;;5019666;28;20496;-58
2021/10/13 07:50:00;;;;;;;11.27;5.10;;;9.30;97.50;;;;;;5019089;28;20065;-58
2021/10/13 07:52:27;;;;;;;12.18;5.28;;;9.40;97.30;;;;;;5019793;28;20128;-59
2021/10/13 07:54:54;;;;;;;7.55;4.45;;;9.50;97.50;;;;;;5017998;28;20696;-59
2021/10/13 07:57:21;;;;;;;8.75;5.00;;;9.60;97.20;;;;;;5018179;28;20111;-58
2021/10/13 07:59:50;;;;;;;11.40;4.72;;;9.70;97.10;;;;;;5023025;28;20045;-59
2021/10/13 08:02:17;;;;;;;13.65;4.70;;;9.70;96.80;;;;;;5018584;28;20152;-59
2021/10/13 08:04:44;;;;;;;12.32;4.75;;;9.80;96.70;;;;;;5019573;28;20084;-60
2021/10/13 08:07:11;;;;;;;13.77;5.45;;;9.90;96.90;;;;;;5019486;28;20095;-59
2021/10/13 08:09:37;;;;;;;9.85;4.78;;;10.00;97.20;;;;;;5018910;28;20132;-59
2021/10/13 08:12:04;;;;;;;11.15;4.95;;;10.00;97.00;;;;;;5019409;28;20157;-59
2021/10/13 08:14:31;;;;;;;11.75;4.20;;;10.10;97.00;;;;;;5020465;28;20297;-59
2021/10/13 08:16:58;;;;;;;9.75;4.63;;;10.20;96.80;;;;;;5018943;28;20080;-59
2021/10/13 08:19:25;;;;;;;8.93;4.78;;;10.30;96.80;;;;;;5018515;28;20081;-59
2021/10/13 08:21:52;;;;;;;13.23;4.45;;;10.40;96.40;;;;;;5034434;28;20183;-59
2021/10/13 08:24:18;;;;;;;8.75;3.45;;;10.40;96.10;;;;;;5019937;28;20045;-59
2021/10/13 08:26:46;;;;;;;10.32;4.35;;;10.50;96.40;;;;;;5018696;28;20244;-59
2021/10/13 08:29:12;;;;;;;6.55;3.47;;;10.60;96.20;;;;;;5018331;28;20166;-59
2021/10/13 08:31:39;;;;;;;9.35;4.07;;;10.70;96.50;;;;;;5027922;28;20173;-58
2021/10/13 08:34:06;;;;;;;11.60;4.78;;;10.70;96.10;;;;;;5019107;28;20138;-59
2021/10/13 08:36:33;;;;;;;8.25;4.78;;;10.80;96.30;;;;;;5018880;28;20089;-58
2021/10/13 08:39:00;;;;;;;10.27;4.50;;;10.80;96.30;;;;;;5018920;28;20128;-59
2021/10/13 08:41:27;;;;;;;8.68;3.60;;;10.90;96.20;;;;;;5017259;28;20045;-59
2021/10/13 08:43:54;;;;;;;9.35;3.67;;;11.00;95.70;;;;;;5019118;28;20077;-59
2021/10/13 08:46:20;;;;;;;6.10;3.63;;;11.10;95.50;;;;;;5022108;28;20501;-59
2021/10/13 08:48:47;;;;;;;12.05;3.78;;;11.10;95.30;;;;;;5018809;28;20045;-59
2021/10/13 08:51:14;;;;;;;9.52;3.88;;;11.20;95.40;;;;;;5018803;28;20487;-59
2021/10/13 08:53:41;;;;;;;11.02;5.38;;;11.30;95.10;;;;;;5017440;28;20263;-59
2021/10/13 08:56:08;;;;;;;12.30;4.70;;;11.40;95.00;;;;;;5018031;28;20171;-59
2021/10/13 08:58:40;;;;;;;13.20;3.90;;;11.50;94.70;;;;;;5016328;28;20124;-59
2021/10/13 09:01:10;;;;;;;12.73;5.80;;;11.50;94.30;;;;;;5024202;28;20057;-59
2021/10/13 09:03:44;;;;;;;8.57;5.32;;;11.60;94.50;;;;;;5016673;28;20291;-58
2021/10/13 09:06:21;;;;;;;11.32;6.82;;;11.70;94.20;;;;;;5017083;28;20057;-58
2021/10/13 09:09:03;;;;;;;10.27;6.38;;;11.70;94.50;;;;;;5017720;28;20128;-58
2021/10/13 09:11:41;;;;;;;7.38;4.72;;;11.80;94.20;;;;;;5017967;28;20136;-59
2021/10/13 09:14:12;;;;;;;9.18;4.40;;;11.90;95.00;;;;;;5017384;28;20444;-59
2021/10/13 09:16:45;;;;;;;6.75;3.92;;;12.00;94.30;;;;;;5017106;28;20073;-59
2021/10/13 09:19:12;;;;;;;10.95;5.05;;;12.10;93.60;;;;;;5017874;28;20063;-59
2021/10/13 09:21:54;;;;;;;9.70;4.35;;;12.20;93.90;;;;;;5032696;28;20494;-59
2021/10/13 09:24:25;;;;;;;9.40;4.38;;;12.40;93.40;;;;;;5018238;28;20393;-59
2021/10/13 09:26:53;;;;;;;12.70;4.70;;;12.40;93.60;;;;;;5017426;28;20049;-59
2021/10/13 09:29:21;;;;;;;14.45;4.18;;;12.50;93.50;;;;;;5017439;28;20085;-59
2021/10/13 09:31:59;;;;;;;9.18;4.32;;;12.60;93.10;;;;;;5018007;28;20833;-59
2021/10/13 09:34:26;;;;;;;9.02;4.20;;;12.70;92.10;;;;;;5016473;28;20137;-59
2021/10/13 09:37:00;;;;;;;10.52;4.78;;;12.70;92.60;;;;;;5018070;28;20148;-59
2021/10/13 09:39:28;;;;;;;8.07;4.20;;;12.60;92.50;;;;;;5014939;28;20083;-59
2021/10/13 09:41:59;;;;;;;6.45;4.00;;;12.50;92.10;;;;;;5016963;28;20529;-59
2021/10/13 09:44:27;;;;;;;7.22;3.95;;;12.30;92.10;;;;;;5016979;28;20141;-59
2021/10/13 09:47:02;;;;;;;10.77;4.85;;;12.30;92.00;;;;;;5017878;28;20140;-59
2021/10/13 09:49:30;;;;;;;9.50;4.18;;;12.30;91.90;;;;;;5015882;28;20156;-59
2021/10/13 09:52:05;;;;;;;7.15;4.20;;;12.20;91.90;;;;;;5019252;28;20045;-60
2021/10/13 09:54:32;;;;;;;9.02;5.10;;;12.20;92.50;;;;;;5019707;28;20144;-59
2021/10/13 09:56:59;;;;;;;7.72;4.25;;;12.30;92.60;;;;;;5018031;28;20168;-59
2021/10/13 09:59:25;;;;;;;7.63;4.55;;;12.30;91.80;;;;;;5018601;28;20218;-59
2021/10/13 10:01:55;;;;;;;11.18;5.40;;;12.30;92.00;;;;;;5028075;28;20136;-59
2021/10/13 10:04:24;;;;;;;10.88;5.50;;;12.30;92.10;;;;;;5010049;28;20209;-59
2021/10/13 10:06:56;;;;;;;10.40;4.82;;;12.40;92.30;;;;;;5000963;28;20168;-59
2021/10/13 10:09:27;;;;;;;10.32;5.65;;;12.40;92.00;;;;;;5016874;28;20050;-59
2021/10/13 10:12:07;;;;;;;10.63;6.20;;;12.50;92.00;;;;;;5018627;28;20061;-60
2021/10/13 10:14:43;;;;;;;9.65;5.50;;;12.50;91.80;;;;;;5016386;28;20522;-59
2021/10/13 10:17:10;;;;;;;13.00;5.43;;;12.50;92.00;;;;;;5018423;28;20140;-59
2021/10/13 10:19:43;;;;;;;9.18;5.50;;;12.60;92.00;;;;;;5022819;28;20045;-59
2021/10/13 10:22:12;;;;;;;7.65;4.20;;;12.60;91.60;;;;;;5017980;28;20292;-59
2021/10/13 10:25:00;;;;;;;10.00;5.32;;;12.60;91.80;;;;;;5018684;28;20114;-59
2021/10/13 10:27:28;;;;;;;8.05;4.75;;;12.70;91.30;;;;;;5016437;28;20107;-59
2021/10/13 10:30:09;;;;;;;6.55;5.18;;;12.80;91.50;;;;;;5027579;28;20127;-59
2021/10/13 10:32:37;;;;;;;9.40;5.25;;;12.90;91.00;;;;;;5017516;28;20504;-59
2021/10/13 10:35:04;;;;;;;8.32;5.05;;;12.90;91.00;;;;;;5017786;28;20076;-59
2021/10/13 10:37:50;;;;;;;8.82;5.55;;;12.90;91.10;;;;;;5018506;28;20049;-59
2021/10/13 10:40:29;;;;;;;12.05;5.00;;;13.00;90.90;;;;;;5018157;28;20061;-59
2021/10/13 10:42:58;;;;;;;6.10;4.78;;;13.10;91.30;;;;;;5015521;28;20136;-59
2021/10/13 10:45:31;;;;;;;8.18;5.43;;;13.20;91.10;;;;;;5015149;28;20471;-59
2021/10/13 10:48:01;;;;;;;11.45;4.30;;;13.30;90.70;;;;;;5023218;28;20088;-59
2021/10/13 10:50:36;;;;;;;7.47;4.47;;;13.40;91.00;;;;;;5015906;28;20133;-59
2021/10/13 10:53:43;;;;;;;6.30;3.85;;;13.50;90.10;;;;;;5014657;28;20131;-59
2021/10/13 10:56:21;;;;;;;7.80;3.80;;;13.60;89.70;;;;;;4948728;28;20510;-59
2021/10/13 10:58:58;;;;;;;9.57;4.60;;;13.70;90.40;;;;;;4942317;28;20311;-59
2021/10/13 11:01:25;;;;;;;10.98;4.20;;;13.90;88.80;;;;;;4990898;28;20449;-59
2021/10/13 11:03:52;;;;;;;8.70;4.00;;;14.00;88.80;;;;;;5017761;28;20126;-59
2021/10/13 11:06:21;;;;;;;7.28;3.58;;;14.00;89.50;;;;;;5017569;28;20605;-59
2021/10/13 11:08:55;;;;;;;13.50;4.25;;;14.00;89.20;;;;;;5018188;28;20053;-59
2021/10/13 11:11:26;;;;;;;8.65;4.65;;;14.20;88.50;;;;;;5016597;28;20568;-59
2021/10/13 11:14:00;;;;;;;7.47;4.07;;;14.30;88.10;;;;;;5017570;28;20072;-59
2021/10/13 11:16:32;;;;;;;5.55;3.22;;;14.50;88.40;;;;;;5016302;28;20480;-59
2021/10/13 11:19:29;;;;;;;5.72;3.35;;;14.70;87.00;;;;;;5018282;28;20080;-59
2021/10/13 11:22:09;;;;;;;5.07;3.45;;;15.00;85.40;;;;;;5015730;28;20046;-60
2021/10/13 11:24:38;;;;;;;5.55;3.50;;;15.20;85.00;;;;;;5018110;28;20108;-59
2021/10/13 11:27:05;;;;;;;4.93;3.47;;;15.30;85.50;;;;;;5017734;28;20048;-59
2021/10/13 11:29:34;;;;;;;7.18;3.45;;;15.30;86.40;;;;;;5021528;28;20116;-59
2021/10/13 11:32:10;;;;;;;5.35;3.42;;;15.40;85.30;;;;;;5016432;28;20105;-59
2021/10/13 11:34:56;;;;;;;5.80;3.15;;;15.40;84.00;;;;;;5015605;28;20050;-59
2021/10/13 11:37:24;;;;;;;6.25;3.30;;;15.60;83.20;;;;;;5021270;28;20129;-59
2021/10/13 11:39:51;;;;;;;6.45;3.00;;;15.80;84.00;;;;;;5018078;28;20172;-59
2021/10/13 11:42:18;;;;;;;4.93;2.83;;;15.90;84.10;;;;;;5017338;28;20156;-59
2021/10/13 11:44:49;;;;;;;5.68;3.17;;;16.20;84.60;;;;;;5016888;28;20084;-59
2021/10/13 11:47:16;;;;;;;5.55;2.63;;;16.20;84.90;;;;;;5017547;28;20167;-59
2021/10/13 11:49:59;;;;;;;4.13;2.47;;;16.40;83.60;;;;;;5018098;28;20132;-59
2021/10/13 11:52:26;;;;;;;5.70;2.53;;;16.70;79.00;;;;;;5017407;28;20424;-59
2021/10/13 11:54:57;;;;;;;6.85;3.40;;;16.80;81.80;;;;;;5015537;28;20156;-60
2021/10/13 11:57:24;;;;;;;6.38;2.72;;;17.00;79.00;;;;;;5016879;28;20049;-59
2021/10/13 12:00:09;;;;;;;6.20;2.22;;;17.00;82.90;;;;;;5017681;28;20560;-59
2021/10/13 12:02:36;;;;;;;7.47;2.50;;;17.50;77.70;;;;;;5014548;28;20160;-60
2021/10/13 12:05:07;;;;;;;5.13;2.28;;;17.90;77.80;;;;;;5020752;28;20075;-60
2021/10/13 12:07:42;;;;;;;4.45;2.50;;;18.20;76.40;;;;;;5021503;28;20327;-60
2021/10/13 12:10:09;;;;;;;4.10;2.42;;;18.50;73.90;;;;;;5021022;28;20045;-59
2021/10/13 12:12:36;;;;;;;4.57;2.22;;;18.40;74.20;;;;;;5021641;28;20868;-60
2021/10/13 12:15:20;;;;;;;4.25;2.25;;;18.40;73.60;;;;;;5021742;28;20485;-60
2021/10/13 12:17:47;;;;;;;5.35;2.03;;;18.50;73.30;;;;;;5021652;28;20053;-59
2021/10/13 12:20:20;;;;;;;4.90;2.58;;;18.20;75.30;;;;;;5022301;28;20065;-60
2021/10/13 12:22:48;;;;;;;;;;;17.90;72.50;;;;;;5022310;28;20131;-59
2021/10/13 12:25:29;;;;;;;4.22;2.17;;;17.70;73.10;;;;;;5021775;28;19929;-59
2021/10/13 12:27:58;;;;;;;6.57;2.63;;;17.70;75.20;;;;;;5021892;28;20057;-59
2021/10/13 12:30:33;;;;;;;4.80;2.00;;;17.70;76.00;;;;;;5018114;28;20511;-59
2021/10/13 12:33:05;;;;;;;5.40;2.40;;;17.70;74.40;;;;;;5018584;28;20116;-59
2021/10/13 12:35:33;;;;;;;5.40;1.83;;;17.80;75.10;;;;;;5020573;28;20228;-60
2021/10/13 12:38:01;;;;;;;5.88;1.63;;;17.70;76.50;;;;;;5020525;28;20136;-59
2021/10/13 12:40:32;;;;;;;5.35;2.08;;;17.80;77.30;;;;;;5020021;28;20560;-59
2021/10/13 12:43:19;;;;;;;4.30;2.55;;;17.70;77.00;;;;;;5019904;28;20091;-60
2021/10/13 12:45:46;;;;;;;3.70;1.88;;;17.50;76.10;;;;;;5020525;28;20045;-59
2021/10/13 12:48:15;;;;;;;4.18;1.95;;;17.50;77.20;;;;;;5019871;28;20046;-59
2021/10/13 12:51:08;;;;;;;4.13;1.90;;;17.40;77.30;;;;;;5021325;28;20063;-59
2021/10/13 12:53:35;;;;;;;6.00;2.30;;;17.30;76.80;;;;;;5017597;28;20088;-59
2021/10/13 12:56:02;;;;;;;3.30;2.03;;;17.40;78.30;;;;;;5016983;28;20136;-59
2021/10/13 12:58:29;;;;;;;4.28;2.30;;;17.50;76.80;;;;;;5016403;28;20084;-60
2021/10/13 13:00:57;;;;;;;6.45;1.90;;;17.60;76.50;;;;;;5020382;28;20081;-59
2021/10/13 13:03:27;;;;;;;3.88;1.98;;;17.60;77.60;;;;;;5014192;28;20045;-59